Observations for SHAWBURY RAF, United Kingdom (EGOS)

EGOS 201650Z AUTO 33012KT 9999 BKN035/// 15/05 Q1020
EGOS 201550Z 31011KT 9999 FEW022 BKN028 14/06 Q1020 BLU NOSIG   
EGOS 201450Z 32013KT 9999 FEW022 BKN025 14/08 Q1019 BLU NOSIG   
EGOS 201350Z 32014KT 9999 -RA BKN019 14/10 Q1019 WHT BECMG BKN030 BLU   
EGOS 201314Z 30013KT 9999 SCT019 BKN028 15/11 Q1019 WHT TEMPO FEW019 BLU
EGOS 201314Z 30013KT 9999 SCT019 BKN028 15/11 Q1019 WHT TEMPO FEW019 BLU
EGOS 201250Z 25014KT 9999 FEW020 BKN030 19/13 Q1018 BLU TEMPO SCT020 WHT
EGOS 201150Z 25018KT 9999 BKN020 19/14 Q1018 WHT NOSIG  
EGOS 201050Z 25019KT 9999 SCT020 BKN035 18/13 Q1018 WHT TEMPO FEW025 BLU
EGOS 200950Z 23017KT 9999 -SHRA SCT024 BKN028 19/15 Q1017 WHT TEMPO FEW025 BLU  
EGOS 200850Z 23018KT 9999 SCT017 OVC028 19/14 Q1017 WHT TEMPO SCT012 GRN
EGOS 200811Z 23018KT 9999 SCT018 BKN026 BKN044 18/15 Q1017 WHT TEMPO FEW018 BLU 
EGOS 200811Z 23018KT 9999 SCT018 BKN026 BKN044 18/15 Q1017 WHT TEMPO FEW018 BLU
EGOS 200750Z 23019KT 9999 FEW016 BKN044 18/14 Q1017 BLU TEMPO BKN018 WHT
EGOS 200650Z 20010KT 9999 FEW015 BKN018 17/14 Q1017 WHT NOSIG   
EGOS 200550Z 20010KT 9999 FEW016 SCT034 17/14 Q1017 BLU 
EGOS 200450Z 20011KT 9999 SCT016 SCT040 17/14 Q1017 WHT 
EGOS 200350Z AUTO 20013KT 9999 FEW019/// BKN043/// 16/14 Q1017  
EGOS 200250Z AUTO 21014KT 9999 BKN034/// 17/13 Q1017
EGOS 200150Z AUTO 22013KT 9999 BKN031/// 17/13 Q1018
EGOS 200050Z AUTO 20010KT 9999 OVC024/// 18/13 Q1018
EGOS 192350Z AUTO 21012KT 9999 BKN030/// 17/14 Q1019
EGOS 192250Z AUTO 20012KT 9999 OVC029/// 18/14 Q1019
EGOS 192150Z AUTO 21015KT 9999 OVC029/// 18/14 Q1019
EGOS 192050Z AUTO 22013KT 9999 OVC031/// 19/14 Q1020
EGOS 191950Z AUTO 21015KT 9999 OVC035/// 19/15 Q1019
EGOS 191850Z AUTO 22015KT 9999 BKN040/// 19/16 Q1020
EGOS 191750Z AUTO 22012KT 9999 BKN044/// 19/16 Q1020 RERA   
EGOS 191650Z AUTO 23011KT 9999 BKN048/// 20/16 Q1020